Terminal Aerodrome Forecast
Issued by NWS Wilmington, OH

Current Version | Previous Version | Text Only | Print | Product List | Glossary Off
Versions: 1 2 3 4 5 6 7 8 9 10 11 12 13 14 15 16 17 18 19 20 21

000
FTUS41 KILN 282332
TAFILN
TAF
KILN 282332Z 2900/2924 07004KT P6SM SCT040
     FM290600 00000KT 3SM BR FEW035
     FM290900 00000KT 1/2SM FG FEW250
     FM291300 25005KT P6SM FEW035 SCT150
     FM292000 27007KT P6SM -SHRA VCTS BKN035CB
     FM292300 29005KT P6SM BKN035=

USA.gov is the U.S. government's official web portal to all federal, state and local government web resources and services.